sensor_id;sensor_type;location;lat;lon;timestamp;P1;durP1;ratioP1;P2;durP2;ratioP2
80910;SDS011;70359;51.420;7.032;2023-08-21T00:00:25;1.1;;;1;;
80910;SDS011;70359;51.420;7.032;2023-08-21T00:02:50;1.1;;;1;;
80910;SDS011;70359;51.420;7.032;2023-08-21T00:05:15;1.3;;;1.1;;
80910;SDS011;70359;51.420;7.032;2023-08-21T00:07:40;1.3;;;1.1;;
80910;SDS011;70359;51.420;7.032;2023-08-21T00:10:05;2.1;;;1.2;;
80910;SDS011;70359;51.420;7.032;2023-08-21T00:12:30;2.1;;;1.2;;
80910;SDS011;70359;51.420;7.032;2023-08-21T00:14:55;1.3;;;1.1;;
80910;SDS011;70359;51.420;7.032;2023-08-21T00:17:20;1.3;;;1.1;;
80910;SDS011;70359;51.420;7.032;2023-08-21T00:19:45;1.1;;;1;;
80910;SDS011;70359;51.420;7.032;2023-08-21T00:22:10;1.1;;;1;;
80910;SDS011;70359;51.420;7.032;2023-08-21T00:24:35;1.6;;;1.1;;
80910;SDS011;70359;51.420;7.032;2023-08-21T00:27:00;1.6;;;1.1;;
80910;SDS011;70359;51.420;7.032;2023-08-21T00:29:25;1.3;;;1.2;;
80910;SDS011;70359;51.420;7.032;2023-08-21T00:31:50;1.3;;;1.2;;
80910;SDS011;70359;51.420;7.032;2023-08-21T00:34:19;1.3;;;1.2;;
80910;SDS011;70359;51.420;7.032;2023-08-21T00:36:40;1.1;;;1;;
80910;SDS011;70359;51.420;7.032;2023-08-21T00:39:05;1.1;;;1;;
80910;SDS011;70359;51.420;7.032;2023-08-21T00:41:30;2.7;;;1.2;;
80910;SDS011;70359;51.420;7.032;2023-08-21T00:43:55;2.7;;;1.2;;
80910;SDS011;70359;51.420;7.032;2023-08-21T00:46:24;1.1;;;1;;
80910;SDS011;70359;51.420;7.032;2023-08-21T00:48:45;1.1;;;1;;
80910;SDS011;70359;51.420;7.032;2023-08-21T00:51:11;0.9;;;0.9;;
80910;SDS011;70359;51.420;7.032;2023-08-21T00:53:35;0.9;;;0.9;;
80910;SDS011;70359;51.420;7.032;2023-08-21T00:56:00;1.9;;;1.2;;
80910;SDS011;70359;51.420;7.032;2023-08-21T00:58:25;1.9;;;1.2;;
80910;SDS011;70359;51.420;7.032;2023-08-21T01:00:52;1;;;0.9;;
80910;SDS011;70359;51.420;7.032;2023-08-21T01:03:15;1;;;0.9;;
80910;SDS011;70359;51.420;7.032;2023-08-21T01:05:40;1.1;;;1;;
80910;SDS011;70359;51.420;7.032;2023-08-21T01:08:14;1.1;;;1;;
80910;SDS011;70359;51.420;7.032;2023-08-21T01:10:36;2.7;;;1;;
80910;SDS011;70359;51.420;7.032;2023-08-21T01:12:57;2.7;;;1;;
80910;SDS011;70359;51.420;7.032;2023-08-21T01:15:24;2.4;;;1.4;;
80910;SDS011;70359;51.420;7.032;2023-08-21T01:17:46;2.4;;;1.4;;
80910;SDS011;70359;51.420;7.032;2023-08-21T01:20:11;1.3;;;1.2;;
80910;SDS011;70359;51.420;7.032;2023-08-21T01:22:40;1.3;;;1.2;;
80910;SDS011;70359;51.420;7.032;2023-08-21T01:25:00;1.6;;;1.1;;
80910;SDS011;70359;51.420;7.032;2023-08-21T01:27:25;1.6;;;1.1;;
80910;SDS011;70359;51.420;7.032;2023-08-21T01:29:50;1.3;;;1.2;;
80910;SDS011;70359;51.420;7.032;2023-08-21T01:32:20;1.3;;;1.2;;
80910;SDS011;70359;51.420;7.032;2023-08-21T01:34:41;1.1;;;1;;
80910;SDS011;70359;51.420;7.032;2023-08-21T01:37:05;1.1;;;1;;
80910;SDS011;70359;51.420;7.032;2023-08-21T01:39:32;2.9;;;1.5;;
80910;SDS011;70359;51.420;7.032;2023-08-21T01:41:55;2.9;;;1.5;;
80910;SDS011;70359;51.420;7.032;2023-08-21T01:44:20;2.9;;;1.5;;
80910;SDS011;70359;51.420;7.032;2023-08-21T01:46:45;1;;;0.9;;
80910;SDS011;70359;51.420;7.032;2023-08-21T01:49:10;1;;;0.9;;
80910;SDS011;70359;51.420;7.032;2023-08-21T01:51:35;1.6;;;1.1;;
80910;SDS011;70359;51.420;7.032;2023-08-21T01:54:00;1.6;;;1.1;;
80910;SDS011;70359;51.420;7.032;2023-08-21T01:56:25;1.3;;;1.1;;
80910;SDS011;70359;51.420;7.032;2023-08-21T01:58:50;1.3;;;1.1;;
80910;SDS011;70359;51.420;7.032;2023-08-21T02:01:15;0.9;;;0.9;;
80910;SDS011;70359;51.420;7.032;2023-08-21T02:03:40;0.9;;;0.9;;
80910;SDS011;70359;51.420;7.032;2023-08-21T02:06:05;2.4;;;1.2;;
80910;SDS011;70359;51.420;7.032;2023-08-21T02:08:31;2.4;;;1.2;;
80910;SDS011;70359;51.420;7.032;2023-08-21T02:10:55;1.3;;;1;;
80910;SDS011;70359;51.420;7.032;2023-08-21T02:13:20;1.3;;;1;;
80910;SDS011;70359;51.420;7.032;2023-08-21T02:15:45;1.9;;;1.1;;
80910;SDS011;70359;51.420;7.032;2023-08-21T02:18:10;1.9;;;1.1;;
80910;SDS011;70359;51.420;7.032;2023-08-21T02:20:35;1.3;;;1.1;;
80910;SDS011;70359;51.420;7.032;2023-08-21T02:23:00;1.3;;;1.1;;
80910;SDS011;70359;51.420;7.032;2023-08-21T02:25:25;2.2;;;1;;
80910;SDS011;70359;51.420;7.032;2023-08-21T02:27:54;2.2;;;1;;
80910;SDS011;70359;51.420;7.032;2023-08-21T02:30:19;0.9;;;0.8;;
80910;SDS011;70359;51.420;7.032;2023-08-21T02:32:40;0.9;;;0.8;;
80910;SDS011;70359;51.420;7.032;2023-08-21T02:35:05;1;;;0.8;;
80910;SDS011;70359;51.420;7.032;2023-08-21T02:37:30;1;;;0.8;;
80910;SDS011;70359;51.420;7.032;2023-08-21T02:39:55;0.8;;;0.8;;
80910;SDS011;70359;51.420;7.032;2023-08-21T02:42:20;0.8;;;0.8;;
80910;SDS011;70359;51.420;7.032;2023-08-21T02:44:45;1;;;0.9;;
80910;SDS011;70359;51.420;7.032;2023-08-21T02:47:10;1;;;0.9;;
80910;SDS011;70359;51.420;7.032;2023-08-21T02:49:35;1;;;0.9;;
80910;SDS011;70359;51.420;7.032;2023-08-21T02:52:00;1.6;;;1;;
80910;SDS011;70359;51.420;7.032;2023-08-21T02:54:25;1.6;;;1;;
80910;SDS011;70359;51.420;7.032;2023-08-21T02:56:50;1;;;1;;
80910;SDS011;70359;51.420;7.032;2023-08-21T02:59:15;1;;;1;;
80910;SDS011;70359;51.420;7.032;2023-08-21T03:01:40;1.4;;;0.8;;
80910;SDS011;70359;51.420;7.032;2023-08-21T03:04:05;1.4;;;0.8;;
80910;SDS011;70359;51.420;7.032;2023-08-21T03:06:30;1.8;;;0.9;;
80910;SDS011;70359;51.420;7.032;2023-08-21T03:08:55;1.8;;;0.9;;
80910;SDS011;70359;51.420;7.032;2023-08-21T03:11:20;0.7;;;0.7;;
80910;SDS011;70359;51.420;7.032;2023-08-21T03:13:45;0.7;;;0.7;;
80910;SDS011;70359;51.420;7.032;2023-08-21T03:16:10;1;;;0.9;;
80910;SDS011;70359;51.420;7.032;2023-08-21T03:18:58;1;;;0.9;;
80910;SDS011;70359;51.420;7.032;2023-08-21T03:21:00;0.7;;;0.7;;
80910;SDS011;70359;51.420;7.032;2023-08-21T03:23:25;0.7;;;0.7;;
80910;SDS011;70359;51.420;7.032;2023-08-21T03:25:51;1.1;;;1;;
80910;SDS011;70359;51.420;7.032;2023-08-21T03:28:15;1.1;;;1;;
80910;SDS011;70359;51.420;7.032;2023-08-21T03:30:42;1;;;0.8;;
80910;SDS011;70359;51.420;7.032;2023-08-21T03:33:05;1;;;0.8;;
80910;SDS011;70359;51.420;7.032;2023-08-21T03:35:30;1;;;0.9;;
80910;SDS011;70359;51.420;7.032;2023-08-21T03:37:55;1;;;0.9;;
80910;SDS011;70359;51.420;7.032;2023-08-21T03:40:20;1.1;;;1;;
80910;SDS011;70359;51.420;7.032;2023-08-21T03:42:45;1.1;;;1;;
80910;SDS011;70359;51.420;7.032;2023-08-21T03:45:11;1.2;;;0.9;;
80910;SDS011;70359;51.420;7.032;2023-08-21T03:47:35;1.2;;;0.9;;
80910;SDS011;70359;51.420;7.032;2023-08-21T03:50:04;2;;;1.4;;
80910;SDS011;70359;51.420;7.032;2023-08-21T03:52:25;2;;;1.4;;
80910;SDS011;70359;51.420;7.032;2023-08-21T03:54:50;1.8;;;1.1;;
80910;SDS011;70359;51.420;7.032;2023-08-21T03:57:19;1.8;;;1.1;;
80910;SDS011;70359;51.420;7.032;2023-08-21T03:59:40;1.8;;;1.1;;
80910;SDS011;70359;51.420;7.032;2023-08-21T04:02:06;4.7;;;1.5;;
80910;SDS011;70359;51.420;7.032;2023-08-21T04:04:30;4.7;;;1.5;;
80910;SDS011;70359;51.420;7.032;2023-08-21T04:06:55;2.2;;;1.2;;
80910;SDS011;70359;51.420;7.032;2023-08-21T04:09:20;2.2;;;1.2;;
80910;SDS011;70359;51.420;7.032;2023-08-21T04:11:45;0.9;;;0.9;;
80910;SDS011;70359;51.420;7.032;2023-08-21T04:14:10;0.9;;;0.9;;
80910;SDS011;70359;51.420;7.032;2023-08-21T04:16:35;1.4;;;1.3;;
80910;SDS011;70359;51.420;7.032;2023-08-21T04:19:00;1.4;;;1.3;;
80910;SDS011;70359;51.420;7.032;2023-08-21T04:21:25;1.5;;;1.4;;
80910;SDS011;70359;51.420;7.032;2023-08-21T04:23:50;1.5;;;1.4;;
80910;SDS011;70359;51.420;7.032;2023-08-21T04:26:15;1.3;;;1.2;;
80910;SDS011;70359;51.420;7.032;2023-08-21T04:28:40;1.3;;;1.2;;
80910;SDS011;70359;51.420;7.032;2023-08-21T04:31:07;1.4;;;1.3;;
80910;SDS011;70359;51.420;7.032;2023-08-21T04:33:32;1.4;;;1.3;;
80910;SDS011;70359;51.420;7.032;2023-08-21T04:35:59;1.4;;;1.2;;
80910;SDS011;70359;51.420;7.032;2023-08-21T04:38:24;1.4;;;1.2;;
80910;SDS011;70359;51.420;7.032;2023-08-21T04:40:45;2.3;;;1.4;;
80910;SDS011;70359;51.420;7.032;2023-08-21T04:43:10;2.3;;;1.4;;
80910;SDS011;70359;51.420;7.032;2023-08-21T04:45:35;1.4;;;1.3;;
80910;SDS011;70359;51.420;7.032;2023-08-21T04:48:00;1.4;;;1.3;;
80910;SDS011;70359;51.420;7.032;2023-08-21T04:50:29;1.4;;;1.3;;
80910;SDS011;70359;51.420;7.032;2023-08-21T04:52:50;1.4;;;1.3;;
80910;SDS011;70359;51.420;7.032;2023-08-21T04:55:15;1.5;;;1.4;;
80910;SDS011;70359;51.420;7.032;2023-08-21T04:57:40;1.5;;;1.4;;
80910;SDS011;70359;51.420;7.032;2023-08-21T05:00:06;1.5;;;1.4;;
80910;SDS011;70359;51.420;7.032;2023-08-21T05:02:30;1.5;;;1.4;;
80910;SDS011;70359;51.420;7.032;2023-08-21T05:04:55;1.6;;;1.5;;
80910;SDS011;70359;51.420;7.032;2023-08-21T05:07:20;1.6;;;1.5;;
80910;SDS011;70359;51.420;7.032;2023-08-21T05:09:45;1.6;;;1.5;;
80910;SDS011;70359;51.420;7.032;2023-08-21T05:12:15;2;;;1.2;;
80910;SDS011;70359;51.420;7.032;2023-08-21T05:14:35;2;;;1.2;;
80910;SDS011;70359;51.420;7.032;2023-08-21T05:17:00;1.8;;;1.5;;
80910;SDS011;70359;51.420;7.032;2023-08-21T05:19:25;1.8;;;1.5;;
80910;SDS011;70359;51.420;7.032;2023-08-21T05:21:50;3.8;;;1.2;;
80910;SDS011;70359;51.420;7.032;2023-08-21T05:24:15;3.8;;;1.2;;
80910;SDS011;70359;51.420;7.032;2023-08-21T05:26:44;2;;;1.5;;
80910;SDS011;70359;51.420;7.032;2023-08-21T05:29:05;2;;;1.5;;
80910;SDS011;70359;51.420;7.032;2023-08-21T05:31:30;1.8;;;1.4;;
80910;SDS011;70359;51.420;7.032;2023-08-21T05:33:56;1.8;;;1.4;;
80910;SDS011;70359;51.420;7.032;2023-08-21T05:36:20;2.4;;;1.4;;
80910;SDS011;70359;51.420;7.032;2023-08-21T05:38:45;2.4;;;1.4;;
80910;SDS011;70359;51.420;7.032;2023-08-21T05:41:10;3.8;;;1.9;;
80910;SDS011;70359;51.420;7.032;2023-08-21T05:43:39;3.8;;;1.9;;
80910;SDS011;70359;51.420;7.032;2023-08-21T05:46:00;1.4;;;1.3;;
80910;SDS011;70359;51.420;7.032;2023-08-21T05:48:29;1.4;;;1.3;;
80910;SDS011;70359;51.420;7.032;2023-08-21T05:50:54;2.9;;;1.6;;
80910;SDS011;70359;51.420;7.032;2023-08-21T05:53:15;2.9;;;1.6;;
80910;SDS011;70359;51.420;7.032;2023-08-21T05:55:40;1.5;;;1.4;;
80910;SDS011;70359;51.420;7.032;2023-08-21T05:58:05;1.5;;;1.4;;
80910;SDS011;70359;51.420;7.032;2023-08-21T06:00:35;1.7;;;1.6;;
80910;SDS011;70359;51.420;7.032;2023-08-21T06:02:55;1.7;;;1.6;;
80910;SDS011;70359;51.420;7.032;2023-08-21T06:05:20;1.6;;;1.5;;
80910;SDS011;70359;51.420;7.032;2023-08-21T06:07:45;1.6;;;1.5;;
80910;SDS011;70359;51.420;7.032;2023-08-21T06:10:11;2.5;;;1.7;;
80910;SDS011;70359;51.420;7.032;2023-08-21T06:12:39;2.5;;;1.7;;
80910;SDS011;70359;51.420;7.032;2023-08-21T06:15:00;2.1;;;1.8;;
80910;SDS011;70359;51.420;7.032;2023-08-21T06:17:26;2.1;;;1.8;;
80910;SDS011;70359;51.420;7.032;2023-08-21T06:19:50;2.1;;;1.8;;
80910;SDS011;70359;51.420;7.032;2023-08-21T06:22:16;2.5;;;2.2;;
80910;SDS011;70359;51.420;7.032;2023-08-21T06:24:40;2.5;;;2.2;;
80910;SDS011;70359;51.420;7.032;2023-08-21T06:27:09;2.3;;;2.1;;
80910;SDS011;70359;51.420;7.032;2023-08-21T06:29:34;2.3;;;2.1;;
80910;SDS011;70359;51.420;7.032;2023-08-21T06:31:56;2.3;;;2.1;;
80910;SDS011;70359;51.420;7.032;2023-08-21T06:34:21;2.3;;;2.1;;
80910;SDS011;70359;51.420;7.032;2023-08-21T06:36:49;2;;;1.8;;
80910;SDS011;70359;51.420;7.032;2023-08-21T06:39:11;2;;;1.8;;
80910;SDS011;70359;51.420;7.032;2023-08-21T06:41:39;3.8;;;2;;
80910;SDS011;70359;51.420;7.032;2023-08-21T06:44:01;3.8;;;2;;
80910;SDS011;70359;51.420;7.032;2023-08-21T06:46:26;1.9;;;1.5;;
80910;SDS011;70359;51.420;7.032;2023-08-21T06:48:51;1.9;;;1.5;;
80910;SDS011;70359;51.420;7.032;2023-08-21T06:51:16;1.6;;;1.5;;
80910;SDS011;70359;51.420;7.032;2023-08-21T06:53:41;1.6;;;1.5;;
80910;SDS011;70359;51.420;7.032;2023-08-21T06:56:10;2.4;;;1.7;;
80910;SDS011;70359;51.420;7.032;2023-08-21T06:58:31;2.4;;;1.7;;
80910;SDS011;70359;51.420;7.032;2023-08-21T07:00:57;1.6;;;1.5;;
80910;SDS011;70359;51.420;7.032;2023-08-21T07:03:25;1.6;;;1.5;;
80910;SDS011;70359;51.420;7.032;2023-08-21T07:05:53;1.8;;;1.5;;
80910;SDS011;70359;51.420;7.032;2023-08-21T07:08:11;1.8;;;1.5;;
80910;SDS011;70359;51.420;7.032;2023-08-21T07:10:39;1.7;;;1.3;;
80910;SDS011;70359;51.420;7.032;2023-08-21T07:13:01;1.7;;;1.3;;
80910;SDS011;70359;51.420;7.032;2023-08-21T07:15:30;1.7;;;1.5;;
80910;SDS011;70359;51.420;7.032;2023-08-21T07:17:51;1.7;;;1.5;;
80910;SDS011;70359;51.420;7.032;2023-08-21T07:20:20;1.4;;;1.3;;
80910;SDS011;70359;51.420;7.032;2023-08-21T07:22:45;1.4;;;1.3;;
80910;SDS011;70359;51.420;7.032;2023-08-21T07:25:07;1.7;;;1.5;;
80910;SDS011;70359;51.420;7.032;2023-08-21T07:27:31;1.7;;;1.5;;
80910;SDS011;70359;51.420;7.032;2023-08-21T07:30:00;1.7;;;1.5;;
80910;SDS011;70359;51.420;7.032;2023-08-21T07:32:21;3.9;;;1.6;;
80910;SDS011;70359;51.420;7.032;2023-08-21T07:34:46;3.9;;;1.6;;
80910;SDS011;70359;51.420;7.032;2023-08-21T07:37:11;1.3;;;1.2;;
80910;SDS011;70359;51.420;7.032;2023-08-21T07:39:36;1.3;;;1.2;;
80910;SDS011;70359;51.420;7.032;2023-08-21T07:42:01;4.1;;;1.9;;
80910;SDS011;70359;51.420;7.032;2023-08-21T07:44:26;4.1;;;1.9;;
80910;SDS011;70359;51.420;7.032;2023-08-21T07:46:51;1.4;;;1.3;;
80910;SDS011;70359;51.420;7.032;2023-08-21T07:49:16;1.4;;;1.3;;
80910;SDS011;70359;51.420;7.032;2023-08-21T07:51:41;1.5;;;1.4;;
80910;SDS011;70359;51.420;7.032;2023-08-21T07:54:10;1.5;;;1.4;;
80910;SDS011;70359;51.420;7.032;2023-08-21T07:56:35;1.6;;;1.3;;
80910;SDS011;70359;51.420;7.032;2023-08-21T07:58:56;1.6;;;1.3;;
80910;SDS011;70359;51.420;7.032;2023-08-21T08:01:21;2.7;;;1.5;;
80910;SDS011;70359;51.420;7.032;2023-08-21T08:03:50;2.7;;;1.5;;
80910;SDS011;70359;51.420;7.032;2023-08-21T08:06:11;6.9;;;1.6;;
80910;SDS011;70359;51.420;7.032;2023-08-21T08:08:36;6.9;;;1.6;;
80910;SDS011;70359;51.420;7.032;2023-08-21T08:11:04;3.5;;;1.3;;
80910;SDS011;70359;51.420;7.032;2023-08-21T08:13:26;3.5;;;1.3;;
80910;SDS011;70359;51.420;7.032;2023-08-21T08:15:55;2.3;;;1.3;;
80910;SDS011;70359;51.420;7.032;2023-08-21T08:18:16;2.3;;;1.3;;
80910;SDS011;70359;51.420;7.032;2023-08-21T08:20:41;1.2;;;1.1;;
80910;SDS011;70359;51.420;7.032;2023-08-21T08:23:06;1.2;;;1.1;;
80910;SDS011;70359;51.420;7.032;2023-08-21T08:25:31;1.4;;;1.3;;
80910;SDS011;70359;51.420;7.032;2023-08-21T08:27:56;1.4;;;1.3;;
80910;SDS011;70359;51.420;7.032;2023-08-21T08:30:21;2;;;1.2;;
80910;SDS011;70359;51.420;7.032;2023-08-21T08:32:46;2;;;1.2;;
80910;SDS011;70359;51.420;7.032;2023-08-21T08:35:15;2;;;1.2;;
80910;SDS011;70359;51.420;7.032;2023-08-21T08:37:36;1.3;;;1.2;;
80910;SDS011;70359;51.420;7.032;2023-08-21T08:40:06;1.3;;;1.2;;
80910;SDS011;70359;51.420;7.032;2023-08-21T08:42:30;2.7;;;1.6;;
80910;SDS011;70359;51.420;7.032;2023-08-21T08:44:53;2.7;;;1.6;;
80910;SDS011;70359;51.420;7.032;2023-08-21T08:47:17;1.6;;;1.3;;
80910;SDS011;70359;51.420;7.032;2023-08-21T08:49:45;1.6;;;1.3;;
80910;SDS011;70359;51.420;7.032;2023-08-21T08:52:10;1.4;;;1.1;;
80910;SDS011;70359;51.420;7.032;2023-08-21T08:54:35;1.4;;;1.1;;
80910;SDS011;70359;51.420;7.032;2023-08-21T08:56:56;1.5;;;1.3;;
80910;SDS011;70359;51.420;7.032;2023-08-21T08:59:25;1.5;;;1.3;;
80910;SDS011;70359;51.420;7.032;2023-08-21T09:01:46;1.7;;;1.3;;
80910;SDS011;70359;51.420;7.032;2023-08-21T09:04:11;1.7;;;1.3;;
80910;SDS011;70359;51.420;7.032;2023-08-21T09:06:36;2.6;;;1.5;;
80910;SDS011;70359;51.420;7.032;2023-08-21T09:09:01;2.6;;;1.5;;
80910;SDS011;70359;51.420;7.032;2023-08-21T09:11:26;1.6;;;1.2;;
80910;SDS011;70359;51.420;7.032;2023-08-21T09:13:53;1.6;;;1.2;;
80910;SDS011;70359;51.420;7.032;2023-08-21T09:16:17;1.6;;;1.2;;
80910;SDS011;70359;51.420;7.032;2023-08-21T09:18:46;1.6;;;1.2;;
80910;SDS011;70359;51.420;7.032;2023-08-21T09:21:06;2.4;;;1.2;;
80910;SDS011;70359;51.420;7.032;2023-08-21T09:23:31;2.4;;;1.2;;
80910;SDS011;70359;51.420;7.032;2023-08-21T09:25:56;1.4;;;1.3;;
80910;SDS011;70359;51.420;7.032;2023-08-21T09:28:25;1.4;;;1.3;;
80910;SDS011;70359;51.420;7.032;2023-08-21T09:30:50;1.4;;;1.2;;
80910;SDS011;70359;51.420;7.032;2023-08-21T09:33:11;1.4;;;1.2;;
80910;SDS011;70359;51.420;7.032;2023-08-21T09:35:36;1.6;;;1.4;;
80910;SDS011;70359;51.420;7.032;2023-08-21T09:38:01;1.6;;;1.4;;
80910;SDS011;70359;51.420;7.032;2023-08-21T09:40:26;1.4;;;1.2;;
80910;SDS011;70359;51.420;7.032;2023-08-21T09:42:55;1.4;;;1.2;;
80910;SDS011;70359;51.420;7.032;2023-08-21T09:45:19;1.4;;;1.2;;
80910;SDS011;70359;51.420;7.032;2023-08-21T09:47:41;3.5;;;1.9;;
80910;SDS011;70359;51.420;7.032;2023-08-21T09:50:07;3.5;;;1.9;;
80910;SDS011;70359;51.420;7.032;2023-08-21T09:52:35;1.9;;;1.4;;
80910;SDS011;70359;51.420;7.032;2023-08-21T09:54:57;1.9;;;1.4;;
80910;SDS011;70359;51.420;7.032;2023-08-21T09:57:23;2.3;;;1.5;;
80910;SDS011;70359;51.420;7.032;2023-08-21T09:59:46;2.3;;;1.5;;
80910;SDS011;70359;51.420;7.032;2023-08-21T10:02:12;1.6;;;1.5;;
80910;SDS011;70359;51.420;7.032;2023-08-21T10:04:39;1.6;;;1.5;;
80910;SDS011;70359;51.420;7.032;2023-08-21T10:07:06;1.9;;;1.4;;
80910;SDS011;70359;51.420;7.032;2023-08-21T10:09:27;1.9;;;1.4;;
80910;SDS011;70359;51.420;7.032;2023-08-21T10:11:52;3.2;;;1.6;;
80910;SDS011;70359;51.420;7.032;2023-08-21T10:14:20;3.2;;;1.6;;
80910;SDS011;70359;51.420;7.032;2023-08-21T10:16:41;2.4;;;2;;
80910;SDS011;70359;51.420;7.032;2023-08-21T10:19:13;2.4;;;2;;
80910;SDS011;70359;51.420;7.032;2023-08-21T10:21:34;1.9;;;1.8;;
80910;SDS011;70359;51.420;7.032;2023-08-21T10:23:59;1.9;;;1.8;;
80910;SDS011;70359;51.420;7.032;2023-08-21T10:26:22;2.6;;;2.3;;
80910;SDS011;70359;51.420;7.032;2023-08-21T10:28:48;2.6;;;2.3;;
80910;SDS011;70359;51.420;7.032;2023-08-21T10:31:30;1.9;;;1.7;;
80910;SDS011;70359;51.420;7.032;2023-08-21T10:33:54;1.9;;;1.7;;
80910;SDS011;70359;51.420;7.032;2023-08-21T10:36:01;1.5;;;1.4;;
80910;SDS011;70359;51.420;7.032;2023-08-21T10:38:26;1.5;;;1.4;;
80910;SDS011;70359;51.420;7.032;2023-08-21T10:41:09;2.2;;;2;;
80910;SDS011;70359;51.420;7.032;2023-08-21T10:43:41;2.2;;;2;;
80910;SDS011;70359;51.420;7.032;2023-08-21T10:45:58;1.6;;;1.5;;
80910;SDS011;70359;51.420;7.032;2023-08-21T10:48:06;1.6;;;1.5;;
80910;SDS011;70359;51.420;7.032;2023-08-21T10:50:32;1.9;;;1.7;;
80910;SDS011;70359;51.420;7.032;2023-08-21T10:52:56;1.9;;;1.7;;
80910;SDS011;70359;51.420;7.032;2023-08-21T10:55:21;1.9;;;1.7;;
80910;SDS011;70359;51.420;7.032;2023-08-21T10:57:47;3;;;2;;
80910;SDS011;70359;51.420;7.032;2023-08-21T11:00:13;3;;;2;;
80910;SDS011;70359;51.420;7.032;2023-08-21T11:02:38;1.6;;;1.5;;
80910;SDS011;70359;51.420;7.032;2023-08-21T11:05:01;1.6;;;1.5;;
80910;SDS011;70359;51.420;7.032;2023-08-21T11:07:27;1.3;;;1.2;;
80910;SDS011;70359;51.420;7.032;2023-08-21T11:09:51;1.3;;;1.2;;
80910;SDS011;70359;51.420;7.032;2023-08-21T11:12:18;1.4;;;1.3;;
80910;SDS011;70359;51.420;7.032;2023-08-21T11:14:41;1.4;;;1.3;;
80910;SDS011;70359;51.420;7.032;2023-08-21T11:17:07;1.3;;;1.2;;
80910;SDS011;70359;51.420;7.032;2023-08-21T11:19:34;1.3;;;1.2;;
80910;SDS011;70359;51.420;7.032;2023-08-21T11:21:56;1.3;;;1.2;;
80910;SDS011;70359;51.420;7.032;2023-08-21T11:24:21;1.3;;;1.2;;
80910;SDS011;70359;51.420;7.032;2023-08-21T11:26:50;1.6;;;1.2;;
80910;SDS011;70359;51.420;7.032;2023-08-21T11:29:12;1.6;;;1.2;;
80910;SDS011;70359;51.420;7.032;2023-08-21T11:31:36;2.5;;;1.6;;
80910;SDS011;70359;51.420;7.032;2023-08-21T11:34:05;2.5;;;1.6;;
80910;SDS011;70359;51.420;7.032;2023-08-21T11:36:30;2.6;;;1.7;;
80910;SDS011;70359;51.420;7.032;2023-08-21T11:39:03;2.6;;;1.7;;
80910;SDS011;70359;51.420;7.032;2023-08-21T11:41:16;1.2;;;1.1;;
80910;SDS011;70359;51.420;7.032;2023-08-21T11:43:42;1.2;;;1.1;;
80910;SDS011;70359;51.420;7.032;2023-08-21T11:46:08;1.9;;;1.4;;
80910;SDS011;70359;51.420;7.032;2023-08-21T11:48:32;1.9;;;1.4;;
80910;SDS011;70359;51.420;7.032;2023-08-21T11:50:56;3.3;;;1.5;;
80910;SDS011;70359;51.420;7.032;2023-08-21T11:53:38;3.3;;;1.5;;
80910;SDS011;70359;51.420;7.032;2023-08-21T11:55:46;1.2;;;1.1;;
80910;SDS011;70359;51.420;7.032;2023-08-21T11:58:16;1.2;;;1.1;;
80910;SDS011;70359;51.420;7.032;2023-08-21T12:00:39;1.2;;;1.1;;
80910;SDS011;70359;51.420;7.032;2023-08-21T12:03:01;3;;;1.1;;
80910;SDS011;70359;51.420;7.032;2023-08-21T12:05:27;3;;;1.1;;
80910;SDS011;70359;51.420;7.032;2023-08-21T12:07:52;1.4;;;1.3;;
80910;SDS011;70359;51.420;7.032;2023-08-21T12:10:26;1.4;;;1.3;;
80910;SDS011;70359;51.420;7.032;2023-08-21T12:12:41;2.1;;;1.3;;
80910;SDS011;70359;51.420;7.032;2023-08-21T12:15:07;2.1;;;1.3;;
80910;SDS011;70359;51.420;7.032;2023-08-21T12:17:31;2.5;;;1.5;;
80910;SDS011;70359;51.420;7.032;2023-08-21T12:20:00;2.5;;;1.5;;
80910;SDS011;70359;51.420;7.032;2023-08-21T12:22:21;1.2;;;1.1;;
80910;SDS011;70359;51.420;7.032;2023-08-21T12:24:46;1.2;;;1.1;;
80910;SDS011;70359;51.420;7.032;2023-08-21T12:27:15;1.6;;;1.5;;
80910;SDS011;70359;51.420;7.032;2023-08-21T12:29:36;1.6;;;1.5;;
80910;SDS011;70359;51.420;7.032;2023-08-21T12:32:06;1.5;;;1.4;;
80910;SDS011;70359;51.420;7.032;2023-08-21T12:34:30;1.5;;;1.4;;
80910;SDS011;70359;51.420;7.032;2023-08-21T12:36:52;2.8;;;1.3;;
80910;SDS011;70359;51.420;7.032;2023-08-21T12:39:21;2.8;;;1.3;;
80910;SDS011;70359;51.420;7.032;2023-08-21T12:41:42;2.3;;;1.6;;
80910;SDS011;70359;51.420;7.032;2023-08-21T12:44:10;2.3;;;1.6;;
80910;SDS011;70359;51.420;7.032;2023-08-21T12:46:31;2.6;;;1.3;;
80910;SDS011;70359;51.420;7.032;2023-08-21T12:48:56;2.6;;;1.3;;
80910;SDS011;70359;51.420;7.032;2023-08-21T12:51:21;1.5;;;1.4;;
80910;SDS011;70359;51.420;7.032;2023-08-21T12:53:47;1.5;;;1.4;;
80910;SDS011;70359;51.420;7.032;2023-08-21T12:56:12;2;;;1.5;;
80910;SDS011;70359;51.420;7.032;2023-08-21T12:58:36;2;;;1.5;;
80910;SDS011;70359;51.420;7.032;2023-08-21T13:01:01;1.5;;;1.4;;
80910;SDS011;70359;51.420;7.032;2023-08-21T13:03:26;1.5;;;1.4;;
80910;SDS011;70359;51.420;7.032;2023-08-21T13:05:55;1.5;;;1.4;;
80910;SDS011;70359;51.420;7.032;2023-08-21T13:08:17;1.5;;;1.4;;
80910;SDS011;70359;51.420;7.032;2023-08-21T13:10:42;1.5;;;1.4;;
80910;SDS011;70359;51.420;7.032;2023-08-21T13:13:07;1.4;;;1.3;;
80910;SDS011;70359;51.420;7.032;2023-08-21T13:15:31;1.4;;;1.3;;
80910;SDS011;70359;51.420;7.032;2023-08-21T13:17:57;2.2;;;1.5;;
80910;SDS011;70359;51.420;7.032;2023-08-21T13:20:26;2.2;;;1.5;;
80910;SDS011;70359;51.420;7.032;2023-08-21T13:22:51;1.3;;;1.2;;
80910;SDS011;70359;51.420;7.032;2023-08-21T13:25:12;1.3;;;1.2;;
80910;SDS011;70359;51.420;7.032;2023-08-21T13:27:37;1.4;;;1.2;;
80910;SDS011;70359;51.420;7.032;2023-08-21T13:30:02;1.4;;;1.2;;
80910;SDS011;70359;51.420;7.032;2023-08-21T13:32:27;1.1;;;1;;
80910;SDS011;70359;51.420;7.032;2023-08-21T13:34:52;1.1;;;1;;
80910;SDS011;70359;51.420;7.032;2023-08-21T13:37:17;1.2;;;1.1;;
80910;SDS011;70359;51.420;7.032;2023-08-21T13:39:42;1.2;;;1.1;;
80910;SDS011;70359;51.420;7.032;2023-08-21T13:42:11;1.3;;;1.2;;
80910;SDS011;70359;51.420;7.032;2023-08-21T13:44:32;1.3;;;1.2;;
80910;SDS011;70359;51.420;7.032;2023-08-21T13:46:57;1.3;;;1.2;;
80910;SDS011;70359;51.420;7.032;2023-08-21T13:49:22;1.3;;;1.2;;
80910;SDS011;70359;51.420;7.032;2023-08-21T13:51:47;2.1;;;1.4;;
80910;SDS011;70359;51.420;7.032;2023-08-21T13:54:12;2.1;;;1.4;;
80910;SDS011;70359;51.420;7.032;2023-08-21T13:56:37;1.7;;;1.1;;
80910;SDS011;70359;51.420;7.032;2023-08-21T13:59:02;1.7;;;1.1;;
80910;SDS011;70359;51.420;7.032;2023-08-21T14:01:27;1.6;;;1.4;;
80910;SDS011;70359;51.420;7.032;2023-08-21T14:03:52;1.6;;;1.4;;
80910;SDS011;70359;51.420;7.032;2023-08-21T14:06:17;1.5;;;1.1;;
80910;SDS011;70359;51.420;7.032;2023-08-21T14:08:46;1.5;;;1.1;;
80910;SDS011;70359;51.420;7.032;2023-08-21T14:11:07;2.5;;;1.2;;
80910;SDS011;70359;51.420;7.032;2023-08-21T14:13:32;2.5;;;1.2;;
80910;SDS011;70359;51.420;7.032;2023-08-21T14:15:57;2.5;;;1.2;;
80910;SDS011;70359;51.420;7.032;2023-08-21T14:18:22;1.2;;;1.1;;
80910;SDS011;70359;51.420;7.032;2023-08-21T14:20:47;1.2;;;1.1;;
80910;SDS011;70359;51.420;7.032;2023-08-21T14:23:12;2;;;1.3;;
80910;SDS011;70359;51.420;7.032;2023-08-21T14:25:37;2;;;1.3;;
80910;SDS011;70359;51.420;7.032;2023-08-21T14:28:02;1.9;;;1.4;;
80910;SDS011;70359;51.420;7.032;2023-08-21T14:30:27;1.9;;;1.4;;
80910;SDS011;70359;51.420;7.032;2023-08-21T14:32:52;2.2;;;1.3;;
80910;SDS011;70359;51.420;7.032;2023-08-21T14:35:17;2.2;;;1.3;;
80910;SDS011;70359;51.420;7.032;2023-08-21T14:37:42;1.7;;;1.4;;
80910;SDS011;70359;51.420;7.032;2023-08-21T14:40:07;1.7;;;1.4;;
80910;SDS011;70359;51.420;7.032;2023-08-21T14:42:32;1.2;;;1.1;;
80910;SDS011;70359;51.420;7.032;2023-08-21T14:44:57;1.2;;;1.1;;
80910;SDS011;70359;51.420;7.032;2023-08-21T14:47:26;1.4;;;1.2;;
80910;SDS011;70359;51.420;7.032;2023-08-21T14:49:47;1.4;;;1.2;;
80910;SDS011;70359;51.420;7.032;2023-08-21T14:52:12;1.3;;;1.2;;
80910;SDS011;70359;51.420;7.032;2023-08-21T14:54:37;1.3;;;1.2;;
80910;SDS011;70359;51.420;7.032;2023-08-21T14:57:02;1.6;;;1.2;;
80910;SDS011;70359;51.420;7.032;2023-08-21T14:59:27;1.6;;;1.2;;
80910;SDS011;70359;51.420;7.032;2023-08-21T15:01:52;2;;;1.4;;
80910;SDS011;70359;51.420;7.032;2023-08-21T15:04:21;2;;;1.4;;
80910;SDS011;70359;51.420;7.032;2023-08-21T15:06:42;1.1;;;1;;